N403BG LELL-LEGE
Flight info
| Callsign | N403BG |
|---|---|
| Flight time | 0h 43m |
| Altitude | 2500 |
| Route | NE S3 MATARO LLAFRANC E |
| Aircraft | C172/L-SGO/C |
Departure
| Time | 2026-05-05 18:52 |
|---|---|
| Airport | Sabadell Airfield (LELL) |
Arrival
| Time | 2026-05-05 19:35 |
|---|---|
| Airport | Girona-Costa Brava Airport (LEGE) |
| Time | Latitude | Longitude | Altitude | Speed | Heading |
|---|---|---|---|---|---|
| 2026-05-05 18:31 | 41.51885 | 2.10591 | 469 ft | 0 kts | 218° |
| 2026-05-05 18:45 | 41.51880 | 2.10585 | 469 ft | 6 kts | 218° |
| 2026-05-05 18:45 | 41.51866 | 2.10587 | 469 ft | 0 kts | 110° |
| 2026-05-05 18:45 | 41.51874 | 2.10615 | 470 ft | 8 kts | 49° |
| 2026-05-05 18:46 | 41.51937 | 2.10560 | 472 ft | 13 kts | 308° |
| 2026-05-05 18:46 | 41.52001 | 2.10447 | 472 ft | 18 kts | 306° |
| 2026-05-05 18:46 | 41.52074 | 2.10322 | 472 ft | 16 kts | 308° |
| 2026-05-05 18:46 | 41.52148 | 2.10192 | 473 ft | 17 kts | 307° |
| 2026-05-05 18:47 | 41.52215 | 2.10075 | 472 ft | 14 kts | 310° |
| 2026-05-05 18:47 | 41.52292 | 2.10036 | 472 ft | 10 kts | 7° |
| 2026-05-05 18:47 | 41.52306 | 2.10034 | 472 ft | 0 kts | 344° |
| 2026-05-05 18:50 | 41.52325 | 2.10040 | 472 ft | 9 kts | 39° |
| 2026-05-05 18:51 | 41.52299 | 2.10137 | 476 ft | 26 kts | 128° |
| 2026-05-05 18:51 | 41.52092 | 2.10499 | 474 ft | 72 kts | 128° |
| 2026-05-05 18:51 | 41.51759 | 2.11061 | 658 ft | 79 kts | 126° |
| 2026-05-05 18:51 | 41.51423 | 2.11667 | 884 ft | 82 kts | 121° |
| 2026-05-05 18:52 | 41.51156 | 2.12339 | 1102 ft | 83 kts | 97° |
| 2026-05-05 18:52 | 41.51263 | 2.13146 | 1194 ft | 98 kts | 67° |
| 2026-05-05 18:52 | 41.51537 | 2.14032 | 1279 ft | 108 kts | 64° |
| 2026-05-05 18:52 | 41.51850 | 2.14965 | 1370 ft | 108 kts | 65° |
| 2026-05-05 18:53 | 41.52162 | 2.15863 | 1447 ft | 107 kts | 63° |
| 2026-05-05 18:53 | 41.52488 | 2.16765 | 1469 ft | 110 kts | 63° |
| 2026-05-05 18:53 | 41.52824 | 2.17702 | 1431 ft | 115 kts | 64° |
| 2026-05-05 18:53 | 41.53151 | 2.18659 | 1466 ft | 113 kts | 64° |
| 2026-05-05 18:54 | 41.53468 | 2.19598 | 1489 ft | 112 kts | 64° |
| 2026-05-05 18:54 | 41.53817 | 2.20544 | 1450 ft | 116 kts | 60° |
| 2026-05-05 18:54 | 41.54224 | 2.21486 | 1414 ft | 116 kts | 58° |
| 2026-05-05 18:54 | 41.54651 | 2.22396 | 1411 ft | 115 kts | 56° |
| 2026-05-05 18:55 | 41.55104 | 2.23293 | 1371 ft | 118 kts | 54° |
| 2026-05-05 18:55 | 41.55560 | 2.24204 | 1332 ft | 117 kts | 56° |
| 2026-05-05 18:55 | 41.55968 | 2.25152 | 1321 ft | 117 kts | 65° |
| 2026-05-05 18:55 | 41.56263 | 2.26143 | 1369 ft | 113 kts | 67° |
| 2026-05-05 18:56 | 41.56527 | 2.27111 | 1394 ft | 112 kts | 70° |
| 2026-05-05 18:56 | 41.56739 | 2.28109 | 1417 ft | 113 kts | 74° |
| 2026-05-05 18:56 | 41.56917 | 2.29115 | 1468 ft | 109 kts | 75° |
| 2026-05-05 18:56 | 41.57093 | 2.30105 | 1511 ft | 110 kts | 74° |
| 2026-05-05 18:57 | 41.57269 | 2.31104 | 1533 ft | 111 kts | 76° |
| 2026-05-05 18:57 | 41.57410 | 2.32123 | 1577 ft | 111 kts | 81° |
| 2026-05-05 18:57 | 41.57467 | 2.33141 | 1647 ft | 109 kts | 88° |
| 2026-05-05 18:57 | 41.57476 | 2.34150 | 1705 ft | 108 kts | 87° |
| 2026-05-05 18:58 | 41.57497 | 2.35161 | 1720 ft | 109 kts | 86° |
| 2026-05-05 18:58 | 41.57543 | 2.36203 | 1677 ft | 116 kts | 84° |
| 2026-05-05 18:58 | 41.57569 | 2.37285 | 1655 ft | 117 kts | 90° |
| 2026-05-05 18:58 | 41.57388 | 2.38350 | 1623 ft | 120 kts | 115° |
| 2026-05-05 18:59 | 41.56919 | 2.39289 | 1531 ft | 124 kts | 126° |
| 2026-05-05 18:59 | 41.56402 | 2.40226 | 1453 ft | 125 kts | 123° |
| 2026-05-05 18:59 | 41.55944 | 2.41180 | 1447 ft | 121 kts | 118° |
| 2026-05-05 18:59 | 41.55588 | 2.42194 | 1423 ft | 119 kts | 106° |
| 2026-05-05 19:00 | 41.55430 | 2.43264 | 1413 ft | 118 kts | 94° |
| 2026-05-05 19:00 | 41.55387 | 2.44350 | 1378 ft | 118 kts | 88° |
| 2026-05-05 19:00 | 41.55403 | 2.45444 | 1326 ft | 120 kts | 86° |
| 2026-05-05 19:00 | 41.55427 | 2.46173 | 1331 ft | 118 kts | 85° |
| 2026-05-05 19:01 | 41.55485 | 2.47263 | 1335 ft | 116 kts | 85° |
| 2026-05-05 19:01 | 41.55624 | 2.48683 | 1349 ft | 117 kts | 75° |
| 2026-05-05 19:01 | 41.55788 | 2.49381 | 1304 ft | 120 kts | 67° |
| 2026-05-05 19:01 | 41.56109 | 2.50392 | 1297 ft | 117 kts | 65° |
| 2026-05-05 19:02 | 41.56578 | 2.51629 | 1233 ft | 118 kts | 53° |
| 2026-05-05 19:02 | 41.56977 | 2.52591 | 1219 ft | 118 kts | 64° |
| 2026-05-05 19:02 | 41.57272 | 2.53604 | 1211 ft | 117 kts | 69° |
| 2026-05-05 19:02 | 41.57502 | 2.54274 | 1174 ft | 118 kts | 61° |
| 2026-05-05 19:03 | 41.57839 | 2.55262 | 1180 ft | 117 kts | 67° |
| 2026-05-05 19:03 | 41.58158 | 2.56263 | 1183 ft | 116 kts | 65° |
| 2026-05-05 19:03 | 41.58489 | 2.57239 | 1206 ft | 115 kts | 65° |
| 2026-05-05 19:03 | 41.58804 | 2.58220 | 1220 ft | 115 kts | 66° |
| 2026-05-05 19:04 | 41.59111 | 2.59198 | 1241 ft | 114 kts | 66° |
| 2026-05-05 19:04 | 41.59425 | 2.60171 | 1263 ft | 113 kts | 65° |
| 2026-05-05 19:04 | 41.59746 | 2.61127 | 1282 ft | 113 kts | 64° |
| 2026-05-05 19:04 | 41.60082 | 2.62090 | 1273 ft | 115 kts | 62° |
| 2026-05-05 19:05 | 41.60436 | 2.63033 | 1308 ft | 113 kts | 63° |
| 2026-05-05 19:05 | 41.60782 | 2.63986 | 1318 ft | 114 kts | 63° |
| 2026-05-05 19:05 | 41.61114 | 2.64949 | 1340 ft | 114 kts | 65° |
| 2026-05-05 19:05 | 41.61431 | 2.65922 | 1355 ft | 114 kts | 68° |
| 2026-05-05 19:06 | 41.61765 | 2.66887 | 1356 ft | 115 kts | 58° |
| 2026-05-05 19:06 | 41.62153 | 2.67820 | 1364 ft | 115 kts | 64° |
| 2026-05-05 19:06 | 41.62470 | 2.68771 | 1389 ft | 114 kts | 63° |
| 2026-05-05 19:06 | 41.62808 | 2.69737 | 1388 ft | 115 kts | 65° |
| 2026-05-05 19:07 | 41.63125 | 2.70682 | 1411 ft | 114 kts | 64° |
| 2026-05-05 19:07 | 41.63454 | 2.71648 | 1420 ft | 115 kts | 64° |
| 2026-05-05 19:07 | 41.63807 | 2.72598 | 1435 ft | 114 kts | 62° |
| 2026-05-05 19:07 | 41.64162 | 2.73557 | 1434 ft | 116 kts | 65° |
| 2026-05-05 19:08 | 41.64512 | 2.74526 | 1457 ft | 114 kts | 61° |
| 2026-05-05 19:08 | 41.64886 | 2.75435 | 1506 ft | 112 kts | 61° |
| 2026-05-05 19:08 | 41.65207 | 2.76423 | 1462 ft | 116 kts | 69° |
| 2026-05-05 19:08 | 41.65568 | 2.77348 | 1530 ft | 112 kts | 54° |
| 2026-05-05 19:09 | 41.66068 | 2.78185 | 1505 ft | 116 kts | 48° |
| 2026-05-05 19:09 | 41.66568 | 2.79015 | 1537 ft | 114 kts | 49° |
| 2026-05-05 19:09 | 41.67113 | 2.79797 | 1542 ft | 114 kts | 43° |
| 2026-05-05 19:09 | 41.67687 | 2.80533 | 1552 ft | 115 kts | 41° |
| 2026-05-05 19:10 | 41.68268 | 2.81264 | 1565 ft | 115 kts | 43° |
| 2026-05-05 19:10 | 41.68820 | 2.82017 | 1624 ft | 111 kts | 50° |
| 2026-05-05 19:10 | 41.69208 | 2.82938 | 1586 ft | 116 kts | 64° |
| 2026-05-05 19:10 | 41.69521 | 2.83939 | 1588 ft | 117 kts | 65° |
| 2026-05-05 19:11 | 41.69834 | 2.84936 | 1602 ft | 116 kts | 67° |
| 2026-05-05 19:11 | 41.70115 | 2.85951 | 1613 ft | 116 kts | 69° |
| 2026-05-05 19:11 | 41.70386 | 2.86966 | 1627 ft | 116 kts | 70° |
| 2026-05-05 19:11 | 41.70691 | 2.87947 | 1656 ft | 114 kts | 66° |
| 2026-05-05 19:12 | 41.71048 | 2.88916 | 1648 ft | 117 kts | 61° |
| 2026-05-05 19:12 | 41.71451 | 2.89834 | 1669 ft | 116 kts | 60° |
| 2026-05-05 19:12 | 41.71847 | 2.90789 | 1660 ft | 116 kts | 62° |
| 2026-05-05 19:12 | 41.72222 | 2.91747 | 1678 ft | 116 kts | 63° |
| 2026-05-05 19:13 | 41.72550 | 2.92737 | 1663 ft | 118 kts | 66° |
| 2026-05-05 19:13 | 41.72863 | 2.93744 | 1689 ft | 114 kts | 63° |
| 2026-05-05 19:13 | 41.73291 | 2.94643 | 1682 ft | 116 kts | 53° |
| 2026-05-05 19:13 | 41.73776 | 2.95510 | 1693 ft | 115 kts | 51° |
| 2026-05-05 19:14 | 41.74247 | 2.96363 | 1695 ft | 115 kts | 52° |
| 2026-05-05 19:14 | 41.74713 | 2.97239 | 1699 ft | 115 kts | 53° |
| 2026-05-05 19:14 | 41.75171 | 2.98116 | 1708 ft | 116 kts | 54° |
| 2026-05-05 19:14 | 41.75652 | 2.98989 | 1703 ft | 116 kts | 49° |
| 2026-05-05 19:15 | 41.76177 | 2.99812 | 1721 ft | 116 kts | 46° |
| 2026-05-05 19:15 | 41.76672 | 3.00562 | 1744 ft | 116 kts | 47° |
| 2026-05-05 19:15 | 41.77102 | 3.01238 | 1737 ft | 119 kts | 48° |
| 2026-05-05 19:15 | 41.77646 | 3.02065 | 1760 ft | 118 kts | 45° |
| 2026-05-05 19:16 | 41.78218 | 3.02840 | 1789 ft | 116 kts | 43° |
| 2026-05-05 19:16 | 41.78774 | 3.03571 | 1775 ft | 119 kts | 43° |
| 2026-05-05 19:16 | 41.79320 | 3.04395 | 1805 ft | 117 kts | 50° |
| 2026-05-05 19:16 | 41.79831 | 3.05182 | 1805 ft | 118 kts | 45° |
| 2026-05-05 19:17 | 41.80400 | 3.05980 | 1825 ft | 118 kts | 44° |
| 2026-05-05 19:17 | 41.80963 | 3.06770 | 1844 ft | 118 kts | 45° |
| 2026-05-05 19:17 | 41.81523 | 3.07577 | 1856 ft | 119 kts | 46° |
| 2026-05-05 19:17 | 41.82077 | 3.08390 | 1876 ft | 119 kts | 45° |
| 2026-05-05 19:18 | 41.82642 | 3.09185 | 1917 ft | 116 kts | 44° |
| 2026-05-05 19:18 | 41.83216 | 3.09950 | 1944 ft | 117 kts | 42° |
| 2026-05-05 19:18 | 41.83833 | 3.10663 | 1957 ft | 117 kts | 39° |
| 2026-05-05 19:18 | 41.84421 | 3.11432 | 1962 ft | 119 kts | 45° |
| 2026-05-05 19:19 | 41.84962 | 3.12266 | 1984 ft | 118 kts | 49° |
| 2026-05-05 19:19 | 41.85468 | 3.13146 | 1990 ft | 120 kts | 56° |
| 2026-05-05 19:19 | 41.85989 | 3.14015 | 2016 ft | 120 kts | 53° |
| 2026-05-05 19:19 | 41.86520 | 3.14882 | 2027 ft | 121 kts | 54° |
| 2026-05-05 19:20 | 41.87016 | 3.15776 | 2063 ft | 119 kts | 57° |
| 2026-05-05 19:20 | 41.87530 | 3.16659 | 2071 ft | 121 kts | 49° |
| 2026-05-05 19:20 | 41.88183 | 3.17386 | 2067 ft | 122 kts | 38° |
| 2026-05-05 19:20 | 41.88905 | 3.17945 | 2102 ft | 121 kts | 14° |
| 2026-05-05 19:21 | 41.89743 | 3.17797 | 2058 ft | 125 kts | 333° |
| 2026-05-05 19:21 | 41.90435 | 3.17128 | 2081 ft | 121 kts | 312° |
| 2026-05-05 19:21 | 41.90983 | 3.16308 | 2121 ft | 118 kts | 304° |
| 2026-05-05 19:21 | 41.91494 | 3.15425 | 2127 ft | 119 kts | 303° |
| 2026-05-05 19:22 | 41.91962 | 3.14575 | 2257 ft | 108 kts | 302° |
| 2026-05-05 19:22 | 41.92396 | 3.13710 | 2187 ft | 115 kts | 300° |
| 2026-05-05 19:22 | 41.92826 | 3.12809 | 2171 ft | 116 kts | 300° |
| 2026-05-05 19:22 | 41.93244 | 3.11896 | 2191 ft | 113 kts | 297° |
| 2026-05-05 19:23 | 41.93621 | 3.10983 | 2203 ft | 113 kts | 296° |
| 2026-05-05 19:23 | 41.93962 | 3.10028 | 2189 ft | 114 kts | 294° |
| 2026-05-05 19:23 | 41.94342 | 3.09098 | 2179 ft | 114 kts | 300° |
| 2026-05-05 19:23 | 41.94779 | 3.08218 | 2154 ft | 116 kts | 302° |
| 2026-05-05 19:24 | 41.95258 | 3.07375 | 2203 ft | 112 kts | 308° |
| 2026-05-05 19:24 | 41.95770 | 3.06588 | 2216 ft | 113 kts | 306° |
| 2026-05-05 19:24 | 41.96246 | 3.05720 | 2151 ft | 117 kts | 302° |
| 2026-05-05 19:24 | 41.96698 | 3.04834 | 2170 ft | 110 kts | 296° |
| 2026-05-05 19:25 | 41.96825 | 3.03840 | 2155 ft | 111 kts | 261° |
| 2026-05-05 19:25 | 41.96604 | 3.02865 | 2176 ft | 108 kts | 249° |
| 2026-05-05 19:25 | 41.96373 | 3.01903 | 2202 ft | 108 kts | 251° |
| 2026-05-05 19:25 | 41.96140 | 3.00946 | 2209 ft | 108 kts | 250° |
| 2026-05-05 19:26 | 41.95897 | 2.99983 | 2224 ft | 109 kts | 251° |
| 2026-05-05 19:26 | 41.95656 | 2.99026 | 2235 ft | 108 kts | 249° |
| 2026-05-05 19:26 | 41.95399 | 2.98062 | 2222 ft | 110 kts | 249° |
| 2026-05-05 19:26 | 41.95143 | 2.97101 | 2256 ft | 108 kts | 249° |
| 2026-05-05 19:27 | 41.94867 | 2.96163 | 2265 ft | 109 kts | 248° |
| 2026-05-05 19:27 | 41.94587 | 2.95215 | 2271 ft | 109 kts | 247° |
| 2026-05-05 19:27 | 41.94310 | 2.94266 | 2285 ft | 109 kts | 247° |
| 2026-05-05 19:27 | 41.94014 | 2.93335 | 2309 ft | 109 kts | 247° |
| 2026-05-05 19:28 | 41.93736 | 2.92384 | 2297 ft | 110 kts | 249° |
| 2026-05-05 19:28 | 41.93455 | 2.91422 | 2298 ft | 111 kts | 249° |
| 2026-05-05 19:28 | 41.93180 | 2.90445 | 2295 ft | 113 kts | 251° |
| 2026-05-05 19:28 | 41.92931 | 2.89451 | 2321 ft | 112 kts | 252° |
| 2026-05-05 19:29 | 41.92690 | 2.88436 | 2304 ft | 114 kts | 252° |
| 2026-05-05 19:29 | 41.92455 | 2.87420 | 2277 ft | 112 kts | 254° |
| 2026-05-05 19:29 | 41.92234 | 2.86439 | 2160 ft | 110 kts | 253° |
| 2026-05-05 19:29 | 41.92012 | 2.85469 | 2038 ft | 107 kts | 253° |
| 2026-05-05 19:30 | 41.91788 | 2.84542 | 1960 ft | 103 kts | 254° |
| 2026-05-05 19:30 | 41.91598 | 2.83623 | 1876 ft | 101 kts | 253° |
| 2026-05-05 19:30 | 41.91377 | 2.82688 | 1712 ft | 107 kts | 252° |
| 2026-05-05 19:30 | 41.91128 | 2.81753 | 1621 ft | 105 kts | 250° |
| 2026-05-05 19:31 | 41.91086 | 2.80861 | 1633 ft | 94 kts | 294° |
| 2026-05-05 19:31 | 41.91475 | 2.80327 | 1637 ft | 90 kts | 338° |
| 2026-05-05 19:31 | 41.92082 | 2.80417 | 1640 ft | 87 kts | 14° |
| 2026-05-05 19:31 | 41.92664 | 2.80602 | 1674 ft | 86 kts | 9° |
| 2026-05-05 19:32 | 41.93210 | 2.80482 | 1691 ft | 84 kts | 313° |
| 2026-05-05 19:32 | 41.93394 | 2.79728 | 1655 ft | 87 kts | 278° |
| 2026-05-05 19:32 | 41.93458 | 2.78897 | 1481 ft | 97 kts | 275° |
| 2026-05-05 19:32 | 41.93398 | 2.78077 | 1327 ft | 82 kts | 253° |
| 2026-05-05 19:33 | 41.93120 | 2.77477 | 1152 ft | 74 kts | 225° |
| 2026-05-05 19:33 | 41.92702 | 2.77107 | 973 ft | 70 kts | 208° |
| 2026-05-05 19:33 | 41.92254 | 2.76865 | 825 ft | 70 kts | 196° |
| 2026-05-05 19:33 | 41.91782 | 2.76691 | 675 ft | 70 kts | 197° |
| 2026-05-05 19:34 | 41.91317 | 2.76519 | 535 ft | 69 kts | 197° |
| 2026-05-05 19:34 | 41.90889 | 2.76359 | 469 ft | 59 kts | 197° |
| 2026-05-05 19:34 | 41.90503 | 2.76209 | 447 ft | 63 kts | 197° |
| 2026-05-05 19:35 | 41.90150 | 2.76105 | 427 ft | 19 kts | 197° |
| 2026-05-05 19:35 | 41.90071 | 2.76202 | 418 ft | 16 kts | 104° |
| 2026-05-05 19:35 | 41.90101 | 2.76286 | 420 ft | 9 kts | 17° |
| 2026-05-05 19:35 | 41.90174 | 2.76314 | 427 ft | 14 kts | 31° |
| 2026-05-05 19:36 | 41.90189 | 2.76416 | 421 ft | 13 kts | 64° |
| 2026-05-05 19:36 | 41.90272 | 2.76457 | 433 ft | 12 kts | 12° |
| 2026-05-05 19:36 | 41.90286 | 2.76484 | 434 ft | 3 kts | 182° |
| 2026-05-05 19:36 | 41.90273 | 2.76479 | 433 ft | 0 kts | 194° |